Time;durP1;ratioP1;P1;durP2;ratioP2;P2;SDS_P1;SDS_P2;PMS_P1;PMS_P2;Temp;Humidity;BMP_temperature;BMP_pressure;BME280_temperature;BME280_humidity;BME280_pressure;Samples;Min_cycle;Max_cycle;Signal;HPM_P1;HPM_P2
2022/07/26 00:01:06;;;;;;;10.52;2.58;;;18.30;99.90;;;;;;4988852;28;20130;-64
2022/07/26 00:03:32;;;;;;;9.88;2.53;;;18.30;99.90;;;;;;4982414;28;20050;-64
2022/07/26 00:05:58;;;;;;;14.07;2.95;;;18.40;99.90;;;;;;4976307;28;20043;-64
2022/07/26 00:08:24;;;;;;;12.98;3.15;;;18.40;99.90;;;;;;4985977;28;20034;-63
2022/07/26 00:10:51;;;;;;;15.48;3.13;;;18.30;99.90;;;;;;4992867;28;20034;-62
2022/07/26 00:13:19;;;;;;;11.70;2.58;;;18.30;99.90;;;;;;4979780;28;20083;-64
2022/07/26 00:15:48;;;;;;;10.25;3.00;;;18.30;99.90;;;;;;4981303;28;20121;-64
2022/07/26 00:18:15;;;;;;;13.93;2.50;;;18.20;99.90;;;;;;4987503;28;20066;-64
2022/07/26 00:20:41;;;;;;;10.88;2.75;;;18.20;99.90;;;;;;4976369;28;20477;-63
2022/07/26 00:23:07;;;;;;;11.75;3.15;;;18.20;99.90;;;;;;4976766;28;20039;-63
2022/07/26 00:25:33;;;;;;;13.77;2.83;;;18.10;99.90;;;;;;4974493;28;20481;-64
2022/07/26 00:27:59;;;;;;;13.00;2.72;;;18.00;99.90;;;;;;4979132;28;20093;-62
2022/07/26 00:30:25;;;;;;;12.50;2.80;;;18.00;99.90;;;;;;4975235;28;20050;-65
2022/07/26 00:32:54;;;;;;;16.90;3.15;;;17.90;99.90;;;;;;4977638;28;20042;-64
2022/07/26 00:35:19;;;;;;;15.68;2.90;;;17.90;99.90;;;;;;4981694;28;20039;-63
2022/07/26 00:37:45;;;;;;;19.48;3.42;;;17.90;99.90;;;;;;4977030;28;20954;-62
2022/07/26 00:40:12;;;;;;;15.20;3.22;;;17.80;99.90;;;;;;4986782;28;20046;-63
2022/07/26 00:42:37;;;;;;;12.65;3.13;;;17.80;99.90;;;;;;4975818;28;20062;-64
2022/07/26 00:45:05;;;;;;;15.00;2.90;;;17.80;99.90;;;;;;4977509;28;20061;-64
2022/07/26 00:47:31;;;;;;;14.30;2.88;;;17.80;99.90;;;;;;4972960;28;20434;-63
2022/07/26 00:49:56;;;;;;;11.55;2.55;;;17.70;99.90;;;;;;4976941;28;20137;-63
2022/07/26 00:52:22;;;;;;;16.05;2.95;;;17.70;99.90;;;;;;4974147;28;20045;-63
2022/07/26 00:54:48;;;;;;;11.88;2.55;;;17.70;99.90;;;;;;4976481;28;20046;-64
2022/07/26 00:57:14;;;;;;;13.60;3.13;;;17.70;99.90;;;;;;4973719;28;20031;-63
2022/07/26 00:59:40;;;;;;;13.07;2.55;;;17.60;99.90;;;;;;4975470;28;20073;-63
2022/07/26 01:02:07;;;;;;;14.35;3.17;;;17.60;99.90;;;;;;4974787;28;20073;-64
2022/07/26 01:04:33;;;;;;;16.58;3.03;;;17.60;99.90;;;;;;4977886;28;20070;-64
2022/07/26 01:06:59;;;;;;;15.38;3.47;;;17.60;99.90;;;;;;4972636;28;20058;-64
2022/07/26 01:09:26;;;;;;;12.50;3.25;;;17.60;99.90;;;;;;4976945;28;20038;-63
2022/07/26 01:11:51;;;;;;;16.58;3.40;;;17.60;99.90;;;;;;4977382;28;20049;-63
2022/07/26 01:14:20;;;;;;;15.00;2.97;;;17.60;99.90;;;;;;4972875;28;20397;-64
2022/07/26 01:16:46;;;;;;;14.32;2.90;;;17.60;99.90;;;;;;4974389;28;20118;-63
2022/07/26 01:19:11;;;;;;;13.32;3.10;;;17.60;99.90;;;;;;4985483;28;20568;-62
2022/07/26 01:21:37;;;;;;;14.23;3.55;;;17.50;99.90;;;;;;4977322;28;20093;-63
2022/07/26 01:24:03;;;;;;;15.35;3.25;;;17.50;99.90;;;;;;4973473;28;20497;-62
2022/07/26 01:26:29;;;;;;;15.00;3.10;;;17.50;99.90;;;;;;4973713;28;20093;-64
2022/07/26 01:28:54;;;;;;;16.40;3.85;;;17.40;99.90;;;;;;4974396;28;20038;-64
2022/07/26 01:31:20;;;;;;;14.60;3.90;;;17.40;99.90;;;;;;4975529;28;20043;-63
2022/07/26 01:33:46;;;;;;;16.45;3.60;;;17.40;99.90;;;;;;4973351;28;20039;-64
2022/07/26 01:36:12;;;;;;;18.02;4.00;;;17.40;99.90;;;;;;4973309;28;20053;-63
2022/07/26 01:38:40;;;;;;;13.77;3.42;;;17.40;99.90;;;;;;4972307;28;20046;-64
2022/07/26 01:41:06;;;;;;;15.65;3.35;;;17.30;99.90;;;;;;4982637;28;20128;-64
2022/07/26 01:43:31;;;;;;;14.13;3.60;;;17.30;99.90;;;;;;4978128;28;20070;-63
2022/07/26 01:45:57;;;;;;;14.77;3.90;;;17.30;99.90;;;;;;4973289;28;20050;-64
2022/07/26 01:48:23;;;;;;;15.07;2.97;;;17.30;99.90;;;;;;4974147;28;20062;-62
2022/07/26 01:50:49;;;;;;;14.20;3.10;;;17.20;99.90;;;;;;4973393;28;20051;-62
2022/07/26 01:53:15;;;;;;;13.15;3.28;;;17.20;99.90;;;;;;4974762;28;20396;-63
2022/07/26 01:55:40;;;;;;;16.48;3.72;;;17.20;99.90;;;;;;4982056;28;20035;-64
2022/07/26 01:58:06;;;;;;;12.95;3.08;;;17.20;99.90;;;;;;4975016;28;20045;-64
2022/07/26 02:00:32;;;;;;;12.82;3.20;;;17.20;99.90;;;;;;4974757;28;20043;-64
2022/07/26 02:02:58;;;;;;;14.60;3.53;;;17.20;99.90;;;;;;4983047;28;20066;-64
2022/07/26 02:05:24;;;;;;;14.55;3.40;;;17.10;99.90;;;;;;4979402;28;20041;-64
2022/07/26 02:07:50;;;;;;;13.80;3.00;;;17.10;99.90;;;;;;4972184;28;20038;-64
2022/07/26 02:10:16;;;;;;;12.32;3.58;;;17.10;99.90;;;;;;4976726;28;20096;-64
2022/07/26 02:12:42;;;;;;;8.10;2.50;;;17.10;99.90;;;;;;4983438;28;20051;-63
2022/07/26 02:15:11;;;;;;;12.82;3.80;;;17.10;99.90;;;;;;4975339;28;20105;-64
2022/07/26 02:17:37;;;;;;;10.80;3.38;;;17.10;99.90;;;;;;4974154;28;20478;-63
2022/07/26 02:20:03;;;;;;;12.32;3.35;;;17.20;99.90;;;;;;4972529;28;20121;-63
2022/07/26 02:22:29;;;;;;;10.40;2.90;;;17.20;99.90;;;;;;4972358;28;20046;-63
2022/07/26 02:24:55;;;;;;;11.02;3.13;;;17.20;99.90;;;;;;4974581;28;20561;-63
2022/07/26 02:27:20;;;;;;;10.45;2.25;;;17.20;99.90;;;;;;4972902;28;20038;-63
2022/07/26 02:29:46;;;;;;;7.47;2.50;;;17.30;99.90;;;;;;4975968;28;20122;-65
2022/07/26 02:32:12;;;;;;;8.88;2.65;;;17.30;99.90;;;;;;4972238;28;20045;-63
2022/07/26 02:34:38;;;;;;;10.05;2.55;;;17.30;99.90;;;;;;4975691;28;20046;-63
2022/07/26 02:37:04;;;;;;;13.40;3.67;;;17.20;99.90;;;;;;4978434;28;20075;-63
2022/07/26 02:39:29;;;;;;;8.52;2.28;;;17.30;99.90;;;;;;4972122;28;20131;-63
2022/07/26 02:41:56;;;;;;;11.10;2.70;;;17.30;99.90;;;;;;4972296;28;20500;-63
2022/07/26 02:44:24;;;;;;;7.90;2.22;;;17.30;99.90;;;;;;4974219;28;20054;-63
2022/07/26 02:46:50;;;;;;;7.95;2.47;;;17.30;99.90;;;;;;4973565;28;20039;-63
2022/07/26 02:49:16;;;;;;;12.02;2.25;;;17.30;99.90;;;;;;4981498;28;20047;-63
2022/07/26 02:51:41;;;;;;;7.55;1.92;;;17.30;99.90;;;;;;4974662;28;20050;-63
2022/07/26 02:54:07;;;;;;;7.80;2.10;;;17.30;99.90;;;;;;4972358;28;20461;-63
2022/07/26 02:56:33;;;;;;;7.82;2.13;;;17.30;99.90;;;;;;4974045;28;20038;-63
2022/07/26 02:58:58;;;;;;;4.90;1.90;;;17.30;99.90;;;;;;4980247;28;20439;-64
2022/07/26 03:01:24;;;;;;;6.38;2.15;;;17.30;99.90;;;;;;4975436;28;20090;-63
2022/07/26 03:03:50;;;;;;;5.60;2.17;;;17.30;99.90;;;;;;4978702;28;20046;-64
2022/07/26 03:06:16;;;;;;;5.00;2.25;;;17.30;99.90;;;;;;4971795;28;20129;-62
2022/07/26 03:08:42;;;;;;;5.00;2.25;;;17.20;99.90;;;;;;4986280;28;20441;-63
2022/07/26 03:11:08;;;;;;;7.88;2.95;;;17.20;99.90;;;;;;4991198;28;20212;-64
2022/07/26 03:13:33;;;;;;;5.13;2.10;;;17.20;99.90;;;;;;4990065;28;20165;-63
2022/07/26 03:15:59;;;;;;;5.65;2.40;;;17.20;99.90;;;;;;4983115;28;20400;-64
2022/07/26 03:18:25;;;;;;;5.03;2.28;;;17.10;99.90;;;;;;4975001;28;20057;-63
2022/07/26 03:20:50;;;;;;;6.75;2.20;;;17.10;99.90;;;;;;4971995;28;20126;-64
2022/07/26 03:23:16;;;;;;;6.85;2.35;;;17.10;99.90;;;;;;4980099;28;20421;-63
2022/07/26 03:25:42;;;;;;;5.18;2.13;;;17.10;99.90;;;;;;4986449;28;20042;-63
2022/07/26 03:28:08;;;;;;;4.20;2.30;;;17.10;99.90;;;;;;4973911;28;20509;-63
2022/07/26 03:30:33;;;;;;;5.85;2.47;;;17.10;99.90;;;;;;4977645;28;20601;-62
2022/07/26 03:32:59;;;;;;;6.18;2.78;;;17.10;99.90;;;;;;4975213;28;20047;-63
2022/07/26 03:35:25;;;;;;;5.85;2.40;;;17.10;99.90;;;;;;4989566;28;20097;-64
2022/07/26 03:37:51;;;;;;;7.50;2.28;;;17.00;99.90;;;;;;4973219;28;20477;-63
2022/07/26 03:40:17;;;;;;;5.20;1.75;;;17.00;99.90;;;;;;4976365;28;20053;-64
2022/07/26 03:42:46;;;;;;;4.30;1.60;;;17.00;99.90;;;;;;4975119;28;20042;-63
2022/07/26 03:45:14;;;;;;;5.25;1.60;;;17.00;99.90;;;;;;4973209;28;20097;-64
2022/07/26 03:47:40;;;;;;;5.97;1.83;;;16.90;99.90;;;;;;4977300;28;20082;-64
2022/07/26 03:50:07;;;;;;;2.85;1.38;;;16.90;99.90;;;;;;4974175;28;20089;-63
2022/07/26 03:52:33;;;;;;;2.88;1.25;;;16.90;99.90;;;;;;4972619;28;20026;-64
2022/07/26 03:54:59;;;;;;;3.85;1.60;;;16.90;99.90;;;;;;4979776;28;20053;-63
2022/07/26 03:57:24;;;;;;;3.70;1.50;;;16.90;99.90;;;;;;4973464;28;20047;-64
2022/07/26 03:59:50;;;;;;;5.82;1.50;;;16.90;99.90;;;;;;4971753;28;20039;-63
2022/07/26 04:02:15;;;;;;;4.82;1.48;;;16.90;99.90;;;;;;4979201;28;20042;-64
2022/07/26 04:04:41;;;;;;;3.50;1.30;;;16.90;99.90;;;;;;4972777;28;20041;-63
2022/07/26 04:07:07;;;;;;;3.95;1.50;;;16.90;99.90;;;;;;4970243;28;20035;-63
2022/07/26 04:09:32;;;;;;;6.28;1.58;;;16.90;99.90;;;;;;4980970;28;20413;-64
2022/07/26 04:11:58;;;;;;;3.25;1.48;;;16.90;99.90;;;;;;4981523;28;20412;-64
2022/07/26 04:14:24;;;;;;;5.13;1.77;;;16.90;99.90;;;;;;4981495;28;20444;-64
2022/07/26 04:16:49;;;;;;;3.92;1.60;;;16.90;99.90;;;;;;4976791;28;20047;-64
2022/07/26 04:19:15;;;;;;;4.30;1.60;;;16.90;99.90;;;;;;4973979;28;20042;-63
2022/07/26 04:21:41;;;;;;;5.00;1.30;;;17.00;99.90;;;;;;4974797;28;20050;-64
2022/07/26 04:24:06;;;;;;;5.05;1.70;;;16.90;99.90;;;;;;4970189;28;20054;-63
2022/07/26 04:26:32;;;;;;;4.57;1.95;;;16.90;99.90;;;;;;4969844;28;20038;-64
2022/07/26 04:28:58;;;;;;;5.75;2.10;;;17.00;99.90;;;;;;4971532;28;20057;-64
2022/07/26 04:31:24;;;;;;;6.10;1.52;;;17.00;99.90;;;;;;4981041;28;20073;-62
2022/07/26 04:33:50;;;;;;;4.43;1.58;;;17.00;99.90;;;;;;4974400;28;20486;-63
2022/07/26 04:36:16;;;;;;;5.72;1.70;;;17.00;99.90;;;;;;4978909;28;20051;-62
2022/07/26 04:38:42;;;;;;;5.22;1.70;;;17.00;99.90;;;;;;4973166;28;20178;-63
2022/07/26 04:41:07;;;;;;;6.13;2.05;;;17.00;99.90;;;;;;4972977;28;20053;-64
2022/07/26 04:43:33;;;;;;;3.85;1.40;;;17.00;99.90;;;;;;4976249;28;20046;-64
2022/07/26 04:45:59;;;;;;;7.85;1.60;;;17.00;99.90;;;;;;4976327;28;20039;-63
2022/07/26 04:48:25;;;;;;;5.70;1.20;;;17.00;99.90;;;;;;4992088;28;20054;-64
2022/07/26 04:50:51;;;;;;;4.10;1.25;;;17.00;99.90;;;;;;4993879;28;20500;-63
2022/07/26 04:53:17;;;;;;;4.22;1.50;;;17.00;99.90;;;;;;4980142;28;20039;-63
2022/07/26 04:55:43;;;;;;;5.40;1.40;;;17.00;99.90;;;;;;4980222;28;20324;-63
2022/07/26 04:58:09;;;;;;;5.18;1.23;;;17.00;99.90;;;;;;4975752;28;20042;-64
2022/07/26 05:00:35;;;;;;;3.95;1.25;;;17.00;99.90;;;;;;4978036;28;20197;-64
2022/07/26 05:03:02;;;;;;;3.90;1.23;;;17.00;99.90;;;;;;4985765;28;20042;-63
2022/07/26 05:05:30;;;;;;;7.88;1.52;;;17.00;99.90;;;;;;4973801;28;20046;-63
2022/07/26 05:08:01;;;;;;;6.25;1.25;;;17.00;99.90;;;;;;4975218;28;20055;-64
2022/07/26 05:10:30;;;;;;;7.20;1.80;;;17.00;99.90;;;;;;4978859;28;20405;-64
2022/07/26 05:12:56;;;;;;;6.85;1.23;;;17.00;99.90;;;;;;4975913;28;20146;-63
2022/07/26 05:15:21;;;;;;;6.40;1.10;;;17.00;99.90;;;;;;4978187;28;20137;-64
2022/07/26 05:17:47;;;;;;;8.43;1.33;;;17.00;99.90;;;;;;4978794;28;20126;-67
2022/07/26 05:20:15;;;;;;;4.28;1.17;;;17.00;99.90;;;;;;4976852;28;20652;-65
2022/07/26 05:22:41;;;;;;;4.45;1.40;;;17.10;99.90;;;;;;4974509;28;20042;-63
2022/07/26 05:25:08;;;;;;;6.85;1.27;;;17.10;99.90;;;;;;4971894;28;20493;-66
2022/07/26 05:27:34;;;;;;;6.60;1.10;;;17.20;99.90;;;;;;4972241;28;20049;-64
2022/07/26 05:29:59;;;;;;;5.53;0.93;;;17.20;99.90;;;;;;4955899;28;20039;-64
2022/07/26 05:32:26;;;;;;;5.90;1.33;;;17.20;99.90;;;;;;4973495;28;20098;-64
2022/07/26 05:34:52;;;;;;;3.38;1.20;;;17.20;99.90;;;;;;4977175;28;20493;-64
2022/07/26 05:37:18;;;;;;;6.32;1.25;;;17.20;99.90;;;;;;4973160;28;20042;-65
2022/07/26 05:39:43;;;;;;;5.10;1.15;;;17.20;99.90;;;;;;4972085;28;20046;-63
2022/07/26 05:42:09;;;;;;;4.47;0.98;;;17.10;99.90;;;;;;4972246;28;20481;-65
2022/07/26 05:44:35;;;;;;;8.20;1.42;;;17.10;99.90;;;;;;4971810;28;20051;-63
2022/07/26 05:47:00;;;;;;;3.63;0.70;;;16.90;99.90;;;;;;4975578;28;20046;-63
2022/07/26 05:49:26;;;;;;;4.85;0.93;;;16.90;99.90;;;;;;4972927;28;20087;-65
2022/07/26 05:51:51;;;;;;;3.83;1.05;;;16.80;99.90;;;;;;4971986;28;20054;-65
2022/07/26 05:54:19;;;;;;;5.72;1.10;;;16.80;99.90;;;;;;4973116;28;20513;-64
2022/07/26 05:56:45;;;;;;;5.13;1.13;;;16.70;99.90;;;;;;4973510;28;20039;-66
2022/07/26 05:59:11;;;;;;;5.65;0.85;;;16.80;99.90;;;;;;4973157;28;20043;-65
2022/07/26 06:01:37;;;;;;;4.72;0.95;;;16.80;99.90;;;;;;4972105;28;20047;-64
2022/07/26 06:04:03;;;;;;;4.53;0.90;;;16.80;99.90;;;;;;4972098;28;20097;-66
2022/07/26 06:06:28;;;;;;;5.22;1.00;;;16.80;99.90;;;;;;4973111;28;20101;-66
2022/07/26 06:08:54;;;;;;;4.18;0.82;;;16.70;99.90;;;;;;4971581;28;20541;-63
2022/07/26 06:11:20;;;;;;;4.07;0.85;;;16.70;99.90;;;;;;4971859;28;20043;-64
2022/07/26 06:13:46;;;;;;;4.43;0.80;;;16.70;99.90;;;;;;4972035;28;20457;-66
2022/07/26 06:16:12;;;;;;;4.05;0.88;;;16.70;99.90;;;;;;4971547;28;20098;-65
2022/07/26 06:18:38;;;;;;;4.07;0.80;;;16.70;99.90;;;;;;4971714;28;20474;-63
2022/07/26 06:21:03;;;;;;;3.00;0.60;;;16.70;99.90;;;;;;4972982;28;20035;-63
2022/07/26 06:23:29;;;;;;;3.67;0.63;;;16.70;99.90;;;;;;4972674;28;20027;-65
2022/07/26 06:25:55;;;;;;;3.20;0.73;;;16.70;99.90;;;;;;4971654;28;20043;-64
2022/07/26 06:28:21;;;;;;;4.95;0.82;;;16.70;99.90;;;;;;4972646;28;20112;-66
2022/07/26 06:30:46;;;;;;;3.92;0.63;;;16.80;99.90;;;;;;4972804;28;20441;-65
2022/07/26 06:33:12;;;;;;;3.92;0.77;;;16.80;99.90;;;;;;4988850;28;20034;-65
2022/07/26 06:35:38;;;;;;;3.63;0.70;;;16.90;99.90;;;;;;4990646;28;20504;-64
2022/07/26 06:38:06;;;;;;;4.25;0.98;;;17.00;99.90;;;;;;4992019;28;20084;-65
2022/07/26 06:40:32;;;;;;;2.83;0.90;;;17.00;99.90;;;;;;4991685;28;20113;-63
2022/07/26 06:42:59;;;;;;;5.55;0.98;;;17.00;99.90;;;;;;4990455;28;20125;-66
2022/07/26 06:45:25;;;;;;;8.10;0.70;;;17.00;99.90;;;;;;4991626;28;20101;-65
2022/07/26 06:47:51;;;;;;;5.97;1.08;;;17.00;99.90;;;;;;4990587;28;20054;-65
2022/07/26 06:50:16;;;;;;;4.40;0.80;;;17.10;99.90;;;;;;4991406;28;20053;-63
2022/07/26 06:52:42;;;;;;;7.60;0.85;;;17.10;99.90;;;;;;4990718;28;20038;-65
2022/07/26 06:55:08;;;;;;;4.65;0.57;;;17.10;99.90;;;;;;4990122;28;20050;-64
2022/07/26 06:57:35;;;;;;;3.55;0.75;;;17.10;99.90;;;;;;4991473;28;20037;-63
2022/07/26 07:00:04;;;;;;;4.90;0.70;;;17.20;99.90;;;;;;4991558;28;20050;-64
2022/07/26 07:02:29;;;;;;;4.40;0.65;;;17.20;99.90;;;;;;4991286;28;20110;-64
2022/07/26 07:04:55;;;;;;;6.70;1.00;;;17.10;99.90;;;;;;4991660;28;20513;-66
2022/07/26 07:07:21;;;;;;;5.03;0.75;;;17.10;99.90;;;;;;4982276;28;20482;-62
2022/07/26 07:09:46;;;;;;;7.97;0.80;;;17.10;99.90;;;;;;4974536;28;20137;-65
2022/07/26 07:12:12;;;;;;;5.05;0.77;;;17.10;99.90;;;;;;4973126;28;20114;-65
2022/07/26 07:14:38;;;;;;;5.00;0.90;;;17.10;99.90;;;;;;4974897;28;20057;-63
2022/07/26 07:17:05;;;;;;;2.95;0.70;;;17.20;99.90;;;;;;4989913;28;20469;-63
2022/07/26 07:19:33;;;;;;;3.83;0.60;;;17.20;99.90;;;;;;4991003;28;20512;-66
2022/07/26 07:21:59;;;;;;;1.92;0.38;;;17.20;99.90;;;;;;4990814;28;20053;-63
2022/07/26 07:24:24;;;;;;;2.72;0.57;;;17.20;99.90;;;;;;4989295;28;20046;-66
2022/07/26 07:26:50;;;;;;;1.65;0.50;;;17.40;99.90;;;;;;4971900;28;20069;-65
2022/07/26 07:29:18;;;;;;;3.60;0.63;;;17.50;99.90;;;;;;4970496;28;20378;-64
2022/07/26 07:31:46;;;;;;;2.33;0.50;;;17.60;99.90;;;;;;4970181;28;20077;-63
2022/07/26 07:34:13;;;;;;;6.22;0.63;;;17.70;99.90;;;;;;4970579;28;20596;-63
2022/07/26 07:36:38;;;;;;;8.85;1.00;;;17.90;99.90;;;;;;4973199;28;20134;-63
2022/07/26 07:39:04;;;;;;;3.05;0.52;;;18.00;99.90;;;;;;4971296;28;20082;-65
2022/07/26 07:41:33;;;;;;;4.47;0.70;;;18.30;99.90;;;;;;4971972;28;20396;-64
2022/07/26 07:44:01;;;;;;;4.28;0.60;;;18.50;99.90;;;;;;4970234;28;20050;-65
2022/07/26 07:46:27;;;;;;;3.78;0.75;;;18.60;99.90;;;;;;4970760;28;20051;-64
2022/07/26 07:48:52;;;;;;;4.88;0.50;;;18.70;99.90;;;;;;4969974;28;20050;-64
2022/07/26 07:51:18;;;;;;;3.03;0.63;;;18.50;99.90;;;;;;4970605;28;20433;-64
2022/07/26 07:53:44;;;;;;;2.97;0.57;;;18.00;99.90;;;;;;4970174;28;20469;-65
2022/07/26 07:56:09;;;;;;;2.70;0.50;;;17.70;99.90;;;;;;4971481;28;20031;-65
2022/07/26 07:58:35;;;;;;;3.35;0.50;;;17.50;99.90;;;;;;4971627;28;20035;-64
2022/07/26 08:01:01;;;;;;;3.95;0.65;;;17.50;99.90;;;;;;4970363;28;20560;-64
2022/07/26 08:03:27;;;;;;;2.60;0.50;;;17.50;99.90;;;;;;4971576;28;20090;-63
2022/07/26 08:05:52;;;;;;;3.15;0.73;;;17.50;99.90;;;;;;4971067;28;20105;-65
2022/07/26 08:08:21;;;;;;;4.55;0.85;;;17.50;99.90;;;;;;4975246;28;20085;-64
2022/07/26 08:10:47;;;;;;;4.05;0.50;;;17.60;99.90;;;;;;4974958;28;20113;-64
2022/07/26 08:13:12;;;;;;;5.10;0.50;;;17.70;99.90;;;;;;4973706;28;20126;-65
2022/07/26 08:15:38;;;;;;;5.47;1.00;;;18.00;99.90;;;;;;4973945;28;20126;-65
2022/07/26 08:18:03;;;;;;;5.10;0.75;;;18.10;99.90;;;;;;4973894;28;20051;-65
2022/07/26 08:20:29;;;;;;;4.65;0.80;;;18.20;99.90;;;;;;4973770;28;20038;-65
2022/07/26 08:22:55;;;;;;;3.50;0.98;;;18.50;99.90;;;;;;4974807;28;20042;-65
2022/07/26 08:25:20;;;;;;;1.95;0.50;;;18.70;99.90;;;;;;4973792;28;20085;-63
2022/07/26 08:27:46;;;;;;;5.18;1.02;;;18.80;99.90;;;;;;4974887;28;20047;-63
2022/07/26 08:30:12;;;;;;;3.83;0.75;;;19.00;99.90;;;;;;4984729;28;20042;-64
2022/07/26 08:32:38;;;;;;;4.25;0.77;;;19.10;99.90;;;;;;4982376;28;20031;-65
2022/07/26 08:35:04;;;;;;;4.03;0.70;;;19.20;99.90;;;;;;4973390;28;20275;-65
2022/07/26 08:37:29;;;;;;;4.40;0.68;;;19.40;99.90;;;;;;4974841;28;20042;-64
2022/07/26 08:39:55;;;;;;;5.70;0.90;;;19.40;99.90;;;;;;4974673;28;20043;-66
2022/07/26 08:42:21;;;;;;;4.40;0.70;;;19.60;99.90;;;;;;4973426;28;20065;-63
2022/07/26 08:44:47;;;;;;;6.93;1.23;;;19.70;99.90;;;;;;4974635;28;20129;-63
2022/07/26 08:47:15;;;;;;;5.65;0.70;;;19.70;99.90;;;;;;4974811;28;20556;-63
2022/07/26 08:49:41;;;;;;;4.57;0.70;;;19.60;99.90;;;;;;4993502;28;20054;-64
2022/07/26 08:52:09;;;;;;;2.95;0.82;;;19.60;99.90;;;;;;4993646;28;20121;-65
2022/07/26 08:54:35;;;;;;;3.63;0.70;;;19.40;99.90;;;;;;4993847;28;20143;-63
2022/07/26 08:57:01;;;;;;;5.80;0.60;;;19.20;99.90;;;;;;4991748;28;20038;-64
2022/07/26 08:59:29;;;;;;;5.55;0.80;;;18.90;99.90;;;;;;4977070;28;20034;-65
2022/07/26 09:02:07;;;;;;;3.67;0.60;;;18.60;99.90;;;;;;4972946;28;20046;-65
2022/07/26 09:04:35;;;;;;;6.25;1.05;;;18.50;99.90;;;;;;4972832;28;20122;-66
2022/07/26 09:07:07;;;;;;;8.25;1.33;;;18.60;99.90;;;;;;4973839;28;20054;-66
2022/07/26 09:09:35;;;;;;;5.55;1.45;;;18.80;99.90;;;;;;4973991;28;20039;-63
2022/07/26 09:12:16;;;;;;;4.55;0.90;;;19.00;99.90;;;;;;4981757;28;20039;-63
2022/07/26 09:14:45;;;;;;;10.32;1.20;;;19.10;99.90;;;;;;4973745;28;20081;-65
2022/07/26 09:17:12;;;;;;;5.18;1.13;;;19.40;99.90;;;;;;4973794;28;20433;-66
2022/07/26 09:19:37;;;;;;;7.72;1.45;;;19.70;99.90;;;;;;4973576;28;20118;-63
2022/07/26 09:22:12;;;;;;;6.25;0.80;;;19.90;99.90;;;;;;4973584;28;20127;-66
2022/07/26 09:24:42;;;;;;;4.75;0.90;;;20.20;99.90;;;;;;4973526;28;20507;-65
2022/07/26 09:27:16;;;;;;;2.15;0.73;;;20.40;99.90;;;;;;4977586;28;20704;-66
2022/07/26 09:29:51;;;;;;;6.00;1.48;;;20.90;99.90;;;;;;4971895;28;20043;-65
2022/07/26 09:32:19;;;;;;;8.02;1.42;;;21.10;99.90;;;;;;4973891;28;20043;-64
2022/07/26 09:34:50;;;;;;;5.47;1.33;;;21.20;99.90;;;;;;4984705;28;20035;-63
2022/07/26 09:37:16;;;;;;;6.95;0.98;;;21.20;99.90;;;;;;4992248;28;20042;-66
2022/07/26 09:39:59;;;;;;;6.68;1.50;;;21.00;99.90;;;;;;4991581;28;20042;-63
2022/07/26 09:42:26;;;;;;;7.00;1.15;;;20.70;99.90;;;;;;4993045;28;20404;-63
2022/07/26 09:44:53;;;;;;;3.33;0.80;;;20.40;99.90;;;;;;4992925;28;20497;-67
2022/07/26 09:47:19;;;;;;;6.60;1.00;;;20.10;99.90;;;;;;4992979;28;20066;-66
2022/07/26 09:49:45;;;;;;;3.47;0.95;;;19.90;99.90;;;;;;4991075;28;20090;-67
2022/07/26 09:52:20;;;;;;;5.07;1.38;;;19.60;99.90;;;;;;4992850;28;20073;-66
2022/07/26 09:54:48;;;;;;;5.13;0.80;;;19.40;99.90;;;;;;4991326;28;20046;-63
2022/07/26 09:57:19;;;;;;;5.57;1.00;;;19.20;99.90;;;;;;4986646;28;20496;-64
2022/07/26 09:59:46;;;;;;;6.97;1.00;;;19.20;99.90;;;;;;4973090;28;20429;-63
2022/07/26 10:02:13;;;;;;;3.83;0.90;;;19.00;99.90;;;;;;4972413;28;20058;-66
2022/07/26 10:04:42;;;;;;;3.70;1.10;;;19.00;99.90;;;;;;4972855;28;20090;-67
2022/07/26 10:07:09;;;;;;;7.10;1.08;;;19.00;99.90;;;;;;4971748;28;20057;-65
2022/07/26 10:09:57;;;;;;;6.28;1.17;;;19.10;99.90;;;;;;4972764;28;20054;-65
2022/07/26 10:12:29;;;;;;;10.80;1.45;;;19.20;99.90;;;;;;4973134;28;20038;-66
2022/07/26 10:14:55;;;;;;;4.45;1.00;;;19.10;99.90;;;;;;4971795;28;20366;-64
2022/07/26 10:17:32;;;;;;;3.95;1.15;;;19.10;99.90;;;;;;4972956;28;20105;-66
2022/07/26 10:20:02;;;;;;;6.00;1.13;;;19.00;99.90;;;;;;4971879;28;20101;-65
2022/07/26 10:22:30;;;;;;;5.15;1.27;;;19.00;99.90;;;;;;4971882;28;20506;-66
2022/07/26 10:25:16;;;;;;;8.45;1.60;;;18.90;99.90;;;;;;4971557;28;20499;-66
2022/07/26 10:27:49;;;;;;;8.43;1.77;;;18.80;99.90;;;;;;4971085;28;20038;-63
2022/07/26 10:30:18;;;;;;;10.50;1.80;;;18.70;99.90;;;;;;4984303;28;20046;-65
2022/07/26 10:32:49;;;;;;;8.77;1.77;;;18.60;99.90;;;;;;4990429;28;20070;-64
2022/07/26 10:35:35;;;;;;;7.22;1.50;;;18.50;99.90;;;;;;4985454;28;20043;-66
2022/07/26 10:38:10;;;;;;;7.22;1.30;;;18.30;99.90;;;;;;4971451;28;20056;-65
2022/07/26 10:40:55;;;;;;;10.23;1.92;;;18.10;99.90;;;;;;4971258;28;20066;-65
2022/07/26 10:43:22;;;;;;;6.03;1.20;;;18.10;99.90;;;;;;4972279;28;20589;-64
2022/07/26 10:45:47;;;;;;;7.18;1.40;;;18.00;99.90;;;;;;4971080;28;20045;-65
2022/07/26 10:48:17;;;;;;;8.00;1.25;;;18.10;99.90;;;;;;4972262;28;20034;-66
2022/07/26 10:50:49;;;;;;;7.35;1.15;;;18.20;99.90;;;;;;4982661;28;20062;-64
2022/07/26 10:53:25;;;;;;;6.65;1.40;;;18.30;99.90;;;;;;4971965;28;20482;-67
2022/07/26 10:56:00;;;;;;;8.00;1.67;;;18.50;99.90;;;;;;4975541;28;20117;-65
2022/07/26 10:58:26;;;;;;;7.00;1.73;;;18.80;99.90;;;;;;4972138;28;20110;-64
2022/07/26 11:01:02;;;;;;;6.55;1.83;;;19.00;99.90;;;;;;4970576;28;20046;-66
2022/07/26 11:03:42;;;;;;;8.05;1.20;;;19.10;99.90;;;;;;4971960;28;20134;-66
2022/07/26 11:06:13;;;;;;;9.93;1.58;;;19.20;99.90;;;;;;4970018;28;20472;-67
2022/07/26 11:08:39;;;;;;;7.93;1.55;;;19.20;99.90;;;;;;4970404;28;20038;-66
2022/07/26 11:11:04;;;;;;;4.82;1.30;;;19.20;99.90;;;;;;4970189;28;20053;-66
2022/07/26 11:13:32;;;;;;;8.75;1.80;;;19.10;99.90;;;;;;4970693;28;20552;-65
2022/07/26 11:16:00;;;;;;;9.82;1.55;;;19.00;99.90;;;;;;4970611;28;20042;-65
2022/07/26 11:18:31;;;;;;;10.18;1.70;;;18.80;99.90;;;;;;4972035;28;20047;-64
2022/07/26 11:21:07;;;;;;;4.80;1.40;;;18.60;99.90;;;;;;4971323;28;20047;-64
2022/07/26 11:23:35;;;;;;;10.45;2.00;;;18.50;99.90;;;;;;4970845;28;20413;-62
2022/07/26 11:26:04;;;;;;;11.23;2.33;;;18.50;99.90;;;;;;4971789;28;20054;-66
2022/07/26 11:28:41;;;;;;;7.65;1.83;;;18.50;99.90;;;;;;4972013;28;20046;-64
2022/07/26 11:31:07;;;;;;;11.70;1.73;;;18.50;99.90;;;;;;4970367;28;20046;-62
2022/07/26 11:33:37;;;;;;;6.75;1.20;;;18.60;99.90;;;;;;4970707;28;20409;-64
2022/07/26 11:36:04;;;;;;;5.05;1.25;;;18.60;99.90;;;;;;4970437;28;20051;-64
2022/07/26 11:38:49;;;;;;;8.68;1.50;;;18.60;99.90;;;;;;4970771;28;20046;-65
2022/07/26 11:41:23;;;;;;;4.45;1.10;;;18.50;99.90;;;;;;4974866;28;20129;-63
2022/07/26 11:43:50;;;;;;;10.45;1.30;;;18.50;99.90;;;;;;4975726;28;20038;-65
2022/07/26 11:46:17;;;;;;;6.30;1.52;;;18.50;99.90;;;;;;4958128;28;20061;-64
2022/07/26 11:48:47;;;;;;;7.15;1.52;;;18.50;99.90;;;;;;4974392;28;20121;-64
2022/07/26 11:51:15;;;;;;;6.57;1.30;;;18.50;99.90;;;;;;4975532;28;20121;-65
2022/07/26 11:53:41;;;;;;;8.07;1.27;;;18.60;99.90;;;;;;4975585;28;20555;-64
2022/07/26 11:56:10;;;;;;;7.55;1.38;;;18.70;99.90;;;;;;4975232;28;20074;-65
2022/07/26 11:58:39;;;;;;;9.13;1.35;;;18.80;99.90;;;;;;4989555;28;20076;-64
2022/07/26 12:01:04;;;;;;;8.23;1.40;;;19.00;99.90;;;;;;4993813;28;20082;-64
2022/07/26 12:03:34;;;;;;;8.02;1.55;;;19.40;99.90;;;;;;4995022;28;20066;-62
2022/07/26 12:06:26;;;;;;;7.78;1.33;;;19.70;99.90;;;;;;4994555;28;20093;-63
2022/07/26 12:08:57;;;;;;;8.85;1.40;;;20.10;99.90;;;;;;4993590;28;20046;-64
2022/07/26 12:11:24;;;;;;;6.87;1.73;;;20.10;99.90;;;;;;4977159;28;20043;-65
2022/07/26 12:13:58;;;;;;;5.55;1.67;;;20.20;99.90;;;;;;4994597;28;20041;-65
2022/07/26 12:16:50;;;;;;;7.35;1.30;;;20.30;99.90;;;;;;4994517;28;20042;-63
2022/07/26 12:19:16;;;;;;;4.80;1.00;;;20.50;99.90;;;;;;4974334;28;20051;-63
2022/07/26 12:21:44;;;;;;;6.60;1.38;;;20.40;99.90;;;;;;4975018;28;20054;-64
2022/07/26 12:24:12;;;;;;;8.90;1.20;;;20.30;99.90;;;;;;4974643;28;20045;-65
2022/07/26 12:26:38;;;;;;;3.00;0.80;;;20.20;99.90;;;;;;4975093;28;20035;-63
2022/07/26 12:32:06;;;;;;;5.38;0.90;;;20.10;99.90;;;;;;4989485;28;20046;-65
2022/07/26 12:34:32;;;;;;;6.10;1.02;;;20.00;99.90;;;;;;4994474;28;20038;-66
2022/07/26 12:37:16;;;;;;;6.97;1.05;;;19.80;99.90;;;;;;4994162;28;20056;-65
2022/07/26 12:39:58;;;;;;;6.38;1.10;;;19.80;99.90;;;;;;4991316;28;20061;-64
2022/07/26 12:42:26;;;;;;;6.00;1.23;;;19.80;99.90;;;;;;4981110;28;20178;-65
2022/07/26 12:44:52;;;;;;;3.42;0.93;;;19.80;99.90;;;;;;4974458;28;20077;-63
2022/07/26 12:47:18;;;;;;;8.82;1.27;;;19.90;99.90;;;;;;4981830;28;20069;-65
2022/07/26 12:49:47;;;;;;;8.10;1.00;;;19.90;99.90;;;;;;4974295;28;20050;-64